Time;durP1;ratioP1;P1;durP2;ratioP2;P2;SDS_P1;SDS_P2;PMS_P1;PMS_P2;Temp;Humidity;BMP_temperature;BMP_pressure;BME280_temperature;BME280_humidity;BME280_pressure;Samples;Min_cycle;Max_cycle;Signal;HPM_P1;HPM_P2
2022/03/28 00:01:08;;;;;;;26.65;16.48;;;;;;;;;;5041365;28;20163;-70
2022/03/28 00:03:34;;;;;;;21.25;16.38;;;;;;;;;;5060633;28;20084;-70
2022/03/28 00:05:59;;;;;;;19.23;16.10;;;;;;;;;;5055117;28;20028;-70
2022/03/28 00:08:25;;;;;;;26.40;16.88;;;;;;;;;;5061081;28;20033;-70
2022/03/28 00:10:51;;;;;;;23.55;17.42;;;;;;;;;;5045946;28;20052;-70
2022/03/28 00:13:16;;;;;;;19.63;16.15;;;;;;;;;;5060234;28;20543;-70
2022/03/28 00:15:42;;;;;;;22.50;16.48;;;;;;;;;;5057871;28;20059;-70
2022/03/28 00:18:09;;;;;;;19.92;16.65;;;;;;;;;;5057676;28;20060;-70
2022/03/28 00:20:35;;;;;;;24.75;16.63;;;;;;;;;;5062972;28;20075;-70
2022/03/28 00:23:01;;;;;;;21.75;16.50;;;;;;;;;;5059122;28;20029;-71
2022/03/28 00:25:26;;;;;;;20.52;16.55;;;;;;;;;;5057443;28;20056;-70
2022/03/28 00:27:52;;;;;;;20.15;16.70;;;;;;;;;;5048300;28;20111;-71
2022/03/28 00:30:18;;;;;;;25.55;16.15;;;;;;;;;;5060236;28;20032;-71
2022/03/28 00:32:44;;;;;;;18.20;16.13;;;;;;;;;;5042136;28;20127;-70
2022/03/28 00:35:09;;;;;;;17.58;15.70;;;;;;;;;;5056979;28;20304;-70
2022/03/28 00:37:37;;;;;;;19.77;16.73;;;;;;;;;;5048282;28;20415;-70
2022/03/28 00:40:05;;;;;;;21.77;16.20;;;;;;;;;;5060856;28;20160;-70
2022/03/28 00:42:31;;;;;;;22.05;16.67;;;;;;;;;;5061759;28;20075;-70
2022/03/28 00:44:57;;;;;;;19.63;16.55;;;;;;;;;;5057909;28;20445;-70
2022/03/28 00:47:22;;;;;;;21.00;15.82;;;;;;;;;;5062621;28;20615;-70
2022/03/28 00:49:48;;;;;;;17.23;14.73;;;;;;;;;;5062162;28;20119;-71
2022/03/28 00:52:14;;;;;;;17.40;15.52;;;;;;;;;;5040502;28;20045;-70
2022/03/28 00:54:40;;;;;;;22.42;15.38;;;;;;;;;;5061989;28;20131;-70
2022/03/28 00:57:06;;;;;;;19.55;15.80;;;;;;;;;;5060449;28;20358;-71
2022/03/28 00:59:32;;;;;;;17.58;15.52;;;;;;;;;;5060625;28;20439;-71
2022/03/28 01:02:02;;;;;;;18.17;15.73;;;;;;;;;;5062196;28;20039;-71
2022/03/28 01:04:28;;;;;;;22.90;15.85;;;;;;;;;;5064515;28;20044;-70
2022/03/28 01:06:54;;;;;;;18.48;15.35;;;;;;;;;;5065822;28;20518;-71
2022/03/28 01:09:20;;;;;;;21.23;15.43;;;;;;;;;;5042745;28;20036;-71
2022/03/28 01:11:46;;;;;;;19.90;15.95;;;;;;;;;;5067773;28;20029;-70
2022/03/28 01:14:12;;;;;;;17.42;15.55;;;;;;;;;;5070205;28;20307;-71
2022/03/28 01:19:24;;;;;;;18.13;15.05;;;;;;;;;;5063537;28;20048;-70
2022/03/28 01:21:53;;;;;;;21.02;15.27;;;;;;;;;;5057770;28;20036;-71
2022/03/28 01:24:19;;;;;;;16.50;14.82;;;;;;;;;;5054938;28;20057;-71
2022/03/28 01:26:45;;;;;;;21.75;15.50;;;;;;;;;;5066613;28;20462;-70
2022/03/28 01:29:13;;;;;;;20.40;15.02;;;;;;;;;;5064648;28;20483;-70
2022/03/28 01:31:39;;;;;;;17.17;14.85;;;;;;;;;;5069877;28;20036;-70
2022/03/28 01:34:05;;;;;;;19.65;14.57;;;;;;;;;;5070503;28;20028;-70
2022/03/28 01:36:31;;;;;;;21.08;14.60;;;;;;;;;;5064007;28;20520;-70
2022/03/28 01:38:56;;;;;;;16.17;14.55;;;;;;;;;;5062999;28;20036;-71
2022/03/28 01:41:22;;;;;;;18.63;15.05;;;;;;;;;;5069807;28;20484;-71
2022/03/28 01:43:48;;;;;;;19.58;14.93;;;;;;;;;;5061448;28;20419;-71
2022/03/28 01:46:13;;;;;;;20.00;15.27;;;;;;;;;;5043488;28;20310;-70
2022/03/28 01:48:39;;;;;;;17.50;14.90;;;;;;;;;;5060035;28;20017;-70
2022/03/28 01:51:05;;;;;;;18.98;14.23;;;;;;;;;;5076629;22;20411;-70
2022/03/28 01:53:30;;;;;;;20.25;15.23;;;;;;;;;;5063232;28;20032;-70
2022/03/28 01:55:56;;;;;;;19.75;15.43;;;;;;;;;;5065006;28;20051;-70
2022/03/28 01:58:21;;;;;;;17.08;15.35;;;;;;;;;;5069936;28;20029;-70
2022/03/28 02:00:47;;;;;;;18.73;14.77;;;;;;;;;;5070872;28;20048;-70
2022/03/28 02:03:13;;;;;;;19.38;15.73;;;;;;;;;;5061770;28;20043;-70
2022/03/28 02:05:38;;;;;;;28.33;15.70;;;;;;;;;;5064676;28;20035;-70
2022/03/28 02:08:04;;;;;;;26.27;16.23;;;;;;;;;;5076306;28;20036;-70
2022/03/28 02:10:30;;;;;;;17.90;15.10;;;;;;;;;;5068964;28;20036;-70
2022/03/28 02:12:56;;;;;;;19.80;15.88;;;;;;;;;;5061871;28;20032;-71
2022/03/28 02:15:23;;;;;;;18.40;14.77;;;;;;;;;;5068433;28;20040;-70
2022/03/28 02:17:49;;;;;;;17.63;15.20;;;;;;;;;;5063372;28;20032;-70
2022/03/28 02:20:15;;;;;;;16.88;14.98;;;;;;;;;;5067025;28;20495;-70
2022/03/28 02:22:42;;;;;;;18.00;15.13;;;;;;;;;;5068470;28;20036;-71
2022/03/28 02:25:10;;;;;;;20.73;16.33;;;;;;;;;;5059336;28;20039;-70
2022/03/28 02:27:41;;;;;;;21.92;15.63;;;;;;;;;;5066076;28;20063;-70
2022/03/28 02:30:09;;;;;;;16.77;14.93;;;;;;;;;;5063179;28;20031;-70
2022/03/28 02:32:35;;;;;;;18.90;14.70;;;;;;;;;;5062602;28;20477;-69
2022/03/28 02:35:02;;;;;;;15.75;14.02;;;;;;;;;;5067599;28;20570;-69
2022/03/28 02:37:27;;;;;;;18.52;14.40;;;;;;;;;;5067954;28;20043;-69
2022/03/28 02:39:53;;;;;;;15.73;14.07;;;;;;;;;;5045511;28;20028;-69
2022/03/28 02:42:22;;;;;;;17.60;15.43;;;;;;;;;;5068681;28;20033;-70
2022/03/28 02:44:49;;;;;;;17.83;14.80;;;;;;;;;;5067994;28;20054;-70
2022/03/28 02:47:18;;;;;;;18.67;15.45;;;;;;;;;;5068055;28;20052;-70
2022/03/28 02:49:43;;;;;;;18.95;14.90;;;;;;;;;;5058258;28;20089;-70
2022/03/28 02:52:09;;;;;;;25.15;16.42;;;;;;;;;;5062997;28;20032;-70
2022/03/28 02:54:35;;;;;;;19.73;15.02;;;;;;;;;;5063755;28;20097;-69
2022/03/28 02:57:00;;;;;;;17.20;15.23;;;;;;;;;;5066799;28;20063;-70
2022/03/28 02:59:26;;;;;;;17.67;14.98;;;;;;;;;;5066299;28;20028;-72
2022/03/28 03:01:51;;;;;;;18.10;14.35;;;;;;;;;;5063494;28;20647;-70
2022/03/28 03:04:17;;;;;;;21.70;15.50;;;;;;;;;;5063587;28;20040;-70
2022/03/28 03:06:43;;;;;;;22.38;15.27;;;;;;;;;;5059075;28;20032;-71
2022/03/28 03:09:08;;;;;;;21.38;15.30;;;;;;;;;;5061520;28;20479;-71
2022/03/28 03:11:34;;;;;;;16.20;14.32;;;;;;;;;;5068000;28;20051;-70
2022/03/28 03:13:59;;;;;;;24.52;15.38;;;;;;;;;;5068375;28;20460;-70
2022/03/28 03:16:25;;;;;;;22.00;14.70;;;;;;;;;;5068337;28;20689;-70
2022/03/28 03:18:51;;;;;;;24.58;14.95;;;;;;;;;;5067255;28;20020;-70
2022/03/28 03:21:17;;;;;;;17.23;14.85;;;;;;;;;;5067834;28;20498;-70
2022/03/28 03:23:43;;;;;;;23.40;14.90;;;;;;;;;;5066603;28;20032;-72
2022/03/28 03:26:08;;;;;;;16.95;14.95;;;;;;;;;;5065804;28;20541;-70
2022/03/28 03:28:34;;;;;;;18.80;14.40;;;;;;;;;;5062460;28;20527;-70
2022/03/28 03:30:59;;;;;;;16.67;14.88;;;;;;;;;;5064165;28;20553;-70
2022/03/28 03:33:25;;;;;;;18.00;14.63;;;;;;;;;;5063115;28;20522;-70
2022/03/28 03:35:50;;;;;;;21.27;14.63;;;;;;;;;;5067600;28;20064;-70
2022/03/28 03:38:16;;;;;;;19.95;15.07;;;;;;;;;;5062340;28;20025;-70
2022/03/28 03:40:42;;;;;;;16.65;13.93;;;;;;;;;;5063806;28;20423;-70
2022/03/28 03:43:07;;;;;;;16.77;14.38;;;;;;;;;;5049834;28;20037;-70
2022/03/28 03:45:33;;;;;;;17.52;14.65;;;;;;;;;;5067757;28;20182;-70
2022/03/28 03:47:59;;;;;;;21.05;14.65;;;;;;;;;;5063006;28;20075;-70
2022/03/28 03:50:25;;;;;;;19.98;14.88;;;;;;;;;;5065598;28;20051;-70
2022/03/28 03:52:51;;;;;;;18.52;15.02;;;;;;;;;;5066593;28;20674;-70
2022/03/28 03:55:17;;;;;;;18.02;14.75;;;;;;;;;;5059285;28;20037;-69
2022/03/28 03:57:43;;;;;;;18.40;14.50;;;;;;;;;;5054357;28;20054;-71
2022/03/28 04:00:09;;;;;;;20.33;15.52;;;;;;;;;;5063942;28;20308;-70
2022/03/28 04:02:38;;;;;;;20.00;14.90;;;;;;;;;;5063823;28;20071;-70
2022/03/28 04:05:04;;;;;;;17.00;14.77;;;;;;;;;;5066863;28;20043;-68
2022/03/28 04:07:30;;;;;;;18.13;14.77;;;;;;;;;;5057536;28;20040;-70
2022/03/28 04:09:59;;;;;;;19.02;14.88;;;;;;;;;;5065682;28;20036;-70
2022/03/28 04:12:25;;;;;;;17.00;14.82;;;;;;;;;;5067916;28;20044;-69
2022/03/28 04:14:50;;;;;;;20.83;14.95;;;;;;;;;;5041796;28;20085;-69
2022/03/28 04:17:16;;;;;;;24.92;15.32;;;;;;;;;;5066073;28;20414;-70
2022/03/28 04:19:42;;;;;;;17.17;14.45;;;;;;;;;;5067973;28;20423;-69
2022/03/28 04:22:07;;;;;;;20.27;15.52;;;;;;;;;;5046412;28;20339;-69
2022/03/28 04:24:33;;;;;;;18.92;15.30;;;;;;;;;;5043880;28;20492;-69
2022/03/28 04:26:58;;;;;;;21.95;15.63;;;;;;;;;;5062928;28;20033;-69
2022/03/28 04:29:24;;;;;;;20.48;15.93;;;;;;;;;;5060672;28;20046;-69
2022/03/28 04:31:49;;;;;;;22.85;15.55;;;;;;;;;;5059447;28;20033;-69
2022/03/28 04:34:15;;;;;;;21.25;15.10;;;;;;;;;;5062518;28;20086;-69
2022/03/28 04:36:41;;;;;;;23.65;15.15;;;;;;;;;;5067315;28;20044;-70
2022/03/28 04:39:07;;;;;;;16.67;14.85;;;;;;;;;;5062088;28;20514;-69
2022/03/28 04:41:32;;;;;;;22.50;15.65;;;;;;;;;;5058082;28;20082;-71
2022/03/28 04:43:58;;;;;;;17.65;14.35;;;;;;;;;;5064844;28;20037;-70
2022/03/28 04:46:24;;;;;;;20.58;15.48;;;;;;;;;;5071257;28;20037;-68
2022/03/28 04:48:49;;;;;;;19.10;16.15;;;;;;;;;;5070447;28;20032;-69
2022/03/28 04:51:16;;;;;;;18.63;14.48;;;;;;;;;;5052162;28;20039;-69
2022/03/28 04:53:42;;;;;;;22.42;15.43;;;;;;;;;;5066423;28;20066;-69
2022/03/28 04:56:07;;;;;;;19.23;15.02;;;;;;;;;;5059361;28;20239;-68
2022/03/28 04:58:33;;;;;;;21.73;15.27;;;;;;;;;;5069027;28;20047;-70
2022/03/28 05:00:58;;;;;;;18.70;15.43;;;;;;;;;;5066413;28;20036;-69
2022/03/28 05:03:24;;;;;;;16.48;14.75;;;;;;;;;;5066078;28;20701;-69
2022/03/28 05:05:50;;;;;;;20.98;15.40;;;;;;;;;;5071085;28;20036;-69
2022/03/28 05:08:15;;;;;;;17.65;15.73;;;;;;;;;;5068985;28;20127;-68
2022/03/28 05:10:41;;;;;;;20.75;14.85;;;;;;;;;;5059594;28;20218;-70
2022/03/28 05:13:07;;;;;;;19.88;15.52;;;;;;;;;;5070369;28;20028;-69
2022/03/28 05:15:32;;;;;;;20.23;15.48;;;;;;;;;;5060310;28;20162;-69
2022/03/28 05:18:01;;;;;;;23.02;16.13;;;;;;;;;;5065167;28;20469;-68
2022/03/28 05:20:27;;;;;;;20.60;15.00;;;;;;;;;;5075315;28;20028;-69
2022/03/28 05:22:52;;;;;;;19.23;16.02;;;;;;;;;;5051198;28;20052;-70
2022/03/28 05:25:18;;;;;;;21.08;15.35;;;;;;;;;;5067742;28;20054;-70
2022/03/28 05:27:45;;;;;;;17.88;15.68;;;;;;;;;;5052250;28;20510;-70
2022/03/28 05:30:12;;;;;;;19.92;15.27;;;;;;;;;;5052612;28;20090;-69
2022/03/28 05:32:38;;;;;;;17.83;15.48;;;;;;;;;;5066949;28;20025;-70
2022/03/28 05:35:06;;;;;;;20.13;16.20;;;;;;;;;;5065289;28;20028;-69
2022/03/28 05:37:32;;;;;;;21.73;16.58;;;;;;;;;;5070752;28;20025;-71
2022/03/28 05:39:57;;;;;;;22.33;15.77;;;;;;;;;;5078384;28;20032;-69
2022/03/28 05:42:23;;;;;;;25.35;16.23;;;;;;;;;;5050442;28;20028;-70
2022/03/28 05:44:49;;;;;;;20.92;15.93;;;;;;;;;;5065088;28;20036;-70
2022/03/28 05:47:14;;;;;;;18.90;15.90;;;;;;;;;;5083774;28;20037;-71
2022/03/28 05:49:40;;;;;;;17.92;15.95;;;;;;;;;;5078609;28;20096;-70
2022/03/28 05:52:06;;;;;;;22.88;16.15;;;;;;;;;;5070236;28;20507;-70
2022/03/28 05:54:32;;;;;;;20.77;16.50;;;;;;;;;;5075291;28;20098;-70
2022/03/28 05:56:59;;;;;;;23.45;16.83;;;;;;;;;;5056367;28;20082;-70
2022/03/28 05:59:24;;;;;;;18.00;15.43;;;;;;;;;;5069183;28;20502;-69
2022/03/28 06:01:50;;;;;;;22.85;17.10;;;;;;;;;;5060067;28;20057;-69
2022/03/28 06:04:15;;;;;;;20.15;16.63;;;;;;;;;;5065109;28;20479;-69
2022/03/28 06:06:41;;;;;;;18.45;14.48;;;;;;;;;;5064854;28;20044;-69
2022/03/28 06:09:07;;;;;;;23.95;17.05;;;;;;;;;;5052083;28;20039;-69
2022/03/28 06:11:32;;;;;;;26.02;17.80;;;;;;;;;;5067068;28;20174;-69
2022/03/28 06:13:58;;;;;;;24.35;18.10;;;;;;;;;;5067134;28;20032;-69
2022/03/28 06:16:24;;;;;;;17.88;15.73;;;;;;;;;;5070248;28;20047;-69
2022/03/28 06:18:50;;;;;;;24.63;16.58;;;;;;;;;;5070153;28;20415;-69
2022/03/28 06:21:16;;;;;;;21.65;17.63;;;;;;;;;;5064447;28;20475;-69
2022/03/28 06:23:42;;;;;;;22.65;16.85;;;;;;;;;;5069788;28;20150;-69
2022/03/28 06:26:10;;;;;;;25.20;17.35;;;;;;;;;;5061255;28;20032;-68
2022/03/28 06:28:36;;;;;;;25.52;17.27;;;;;;;;;;5051506;28;20067;-68
2022/03/28 06:31:02;;;;;;;21.58;16.73;;;;;;;;;;5066281;28;20036;-68
2022/03/28 06:33:28;;;;;;;19.63;15.98;;;;;;;;;;5068103;28;20483;-69
2022/03/28 06:35:53;;;;;;;21.83;16.83;;;;;;;;;;5065143;28;20044;-71
2022/03/28 06:38:19;;;;;;;19.75;16.63;;;;;;;;;;5069412;28;20041;-69
2022/03/28 06:40:45;;;;;;;25.08;16.45;;;;;;;;;;5069627;28;20414;-70
2022/03/28 06:43:10;;;;;;;29.40;17.98;;;;;;;;;;5067295;28;20129;-69
2022/03/28 06:45:37;;;;;;;31.15;17.00;;;;;;;;;;5067102;28;20176;-69
2022/03/28 06:48:04;;;;;;;23.30;17.13;;;;;;;;;;5069757;28;20068;-69
2022/03/28 06:50:29;;;;;;;28.02;18.27;;;;;;;;;;5069585;28;20028;-69
2022/03/28 06:52:55;;;;;;;25.98;17.38;;;;;;;;;;5062691;28;20041;-71
2022/03/28 06:55:22;;;;;;;22.17;17.38;;;;;;;;;;5060835;28;20068;-70
2022/03/28 06:57:48;;;;;;;20.67;16.60;;;;;;;;;;5064981;28;20059;-70
2022/03/28 07:00:14;;;;;;;20.40;16.90;;;;;;;;;;5065287;28;20060;-70
2022/03/28 07:02:40;;;;;;;20.40;17.42;;;;;;;;;;5068748;28;20038;-70
2022/03/28 07:05:07;;;;;;;21.92;17.45;;;;;;;;;;5066382;28;20037;-69
2022/03/28 07:07:47;;;;;;;23.83;17.90;;;;;;;;;;5066238;28;20476;-70
2022/03/28 07:10:13;;;;;;;;;;;;;;;;;;5059489;28;20122;-70
2022/03/28 07:12:40;;;;;;;19.98;16.90;;;;;;;;;;5064269;28;19954;-70
2022/03/28 07:15:07;;;;;;;29.02;17.95;;;;;;;;;;5068978;28;20086;-70
2022/03/28 07:17:52;;;;;;;26.30;18.05;;;;;;;;;;5068017;28;20028;-70
2022/03/28 07:20:19;;;;;;;28.33;18.77;;;;;;;;;;5067144;28;20040;-71
2022/03/28 07:22:44;;;;;;;26.48;18.38;;;;;;;;;;5069049;28;20573;-71
2022/03/28 07:25:10;;;;;;;20.75;18.55;;;;;;;;;;5062513;28;20078;-69
2022/03/28 07:27:38;;;;;;;25.10;18.25;;;;;;;;;;5060410;28;20503;-69
2022/03/28 07:30:04;;;;;;;21.90;18.25;;;;;;;;;;5068920;28;20059;-71
2022/03/28 07:32:30;;;;;;;26.40;18.63;;;;;;;;;;5069136;28;20545;-71
2022/03/28 07:34:55;;;;;;;26.88;19.05;;;;;;;;;;5063500;28;20036;-72
2022/03/28 07:37:22;;;;;;;26.08;19.73;;;;;;;;;;5069118;28;20047;-71
2022/03/28 07:39:48;;;;;;;21.50;19.30;;;;;;;;;;5069152;28;20518;-70
2022/03/28 07:42:14;;;;;;;21.48;18.80;;;;;;;;;;5068225;28;20040;-70
2022/03/28 07:44:41;;;;;;;26.85;19.52;;;;;;;;;;5043618;28;20057;-70
2022/03/28 07:47:08;;;;;;;22.50;20.10;;;;;;;;;;5068460;28;20120;-71
2022/03/28 07:49:35;;;;;;;28.30;20.45;;;;;;;;;;5068602;28;20047;-71
2022/03/28 07:52:02;;;;;;;26.58;19.58;;;;;;;;;;5067815;28;20036;-71
2022/03/28 07:54:29;;;;;;;21.52;19.23;;;;;;;;;;5058780;28;20037;-71
2022/03/28 07:56:55;;;;;;;22.92;20.50;;;;;;;;;;5056465;28;20104;-70
2022/03/28 07:59:21;;;;;;;23.33;19.70;;;;;;;;;;5069006;28;20124;-70
2022/03/28 08:01:46;;;;;;;24.20;19.00;;;;;;;;;;5061391;28;20033;-70
2022/03/28 08:04:12;;;;;;;25.23;20.67;;;;;;;;;;5068095;28;20047;-70
2022/03/28 08:06:37;;;;;;;22.75;20.27;;;;;;;;;;5062111;28;20123;-70
2022/03/28 08:09:04;;;;;;;24.55;20.33;;;;;;;;;;5067124;28;20115;-71
2022/03/28 08:11:30;;;;;;;23.42;20.42;;;;;;;;;;5055454;28;20115;-71
2022/03/28 08:13:56;;;;;;;24.48;20.48;;;;;;;;;;5067742;28;20560;-71
2022/03/28 08:16:22;;;;;;;26.83;19.98;;;;;;;;;;5067105;28;20028;-70
2022/03/28 08:18:47;;;;;;;28.65;19.73;;;;;;;;;;5062294;28;20032;-70
2022/03/28 08:21:13;;;;;;;21.83;19.55;;;;;;;;;;5062535;28;20044;-71
2022/03/28 08:23:39;;;;;;;27.42;20.33;;;;;;;;;;5066852;28;20056;-70
2022/03/28 08:26:05;;;;;;;28.15;19.70;;;;;;;;;;5061433;28;20434;-70
2022/03/28 08:28:31;;;;;;;30.23;20.65;;;;;;;;;;5064480;28;20052;-70
2022/03/28 08:30:57;;;;;;;26.92;19.63;;;;;;;;;;5067664;28;20044;-70
2022/03/28 08:33:23;;;;;;;25.88;19.75;;;;;;;;;;5066541;28;20036;-71
2022/03/28 08:35:49;;;;;;;24.67;19.95;;;;;;;;;;5062994;28;20036;-70
2022/03/28 08:38:15;;;;;;;26.10;19.83;;;;;;;;;;5067728;28;20039;-70
2022/03/28 08:40:42;;;;;;;26.15;20.58;;;;;;;;;;5063304;28;20408;-70
2022/03/28 08:43:09;;;;;;;23.33;19.75;;;;;;;;;;5055960;28;20140;-71
2022/03/28 08:45:41;;;;;;;28.65;21.23;;;;;;;;;;5067472;28;20024;-70
2022/03/28 08:48:11;;;;;;;24.05;20.27;;;;;;;;;;5067950;28;20033;-70
2022/03/28 08:50:44;;;;;;;28.08;20.65;;;;;;;;;;5063943;28;20485;-70
2022/03/28 08:53:10;;;;;;;27.40;19.98;;;;;;;;;;5062666;28;20063;-70
2022/03/28 08:55:39;;;;;;;25.25;19.77;;;;;;;;;;5062367;28;20045;-70
2022/03/28 08:58:05;;;;;;;22.65;19.70;;;;;;;;;;5064032;28;20476;-70
2022/03/28 09:00:30;;;;;;;33.45;20.13;;;;;;;;;;5065332;28;20146;-71
2022/03/28 09:02:57;;;;;;;25.83;21.15;;;;;;;;;;5049611;28;20037;-71
2022/03/28 09:05:34;;;;;;;30.45;19.67;;;;;;;;;;5065005;28;20112;-71
2022/03/28 09:08:01;;;;;;;24.55;19.83;;;;;;;;;;5061600;28;20043;-71
2022/03/28 09:10:29;;;;;;;25.92;19.00;;;;;;;;;;5067245;28;20508;-71
2022/03/28 09:13:13;;;;;;;23.92;19.25;;;;;;;;;;5067423;28;20140;-71
2022/03/28 09:15:53;;;;;;;26.60;19.23;;;;;;;;;;5062864;28;20090;-71
2022/03/28 09:18:26;;;;;;;26.25;19.83;;;;;;;;;;5061765;28;20103;-71
2022/03/28 09:20:54;;;;;;;24.90;19.63;;;;;;;;;;5067993;28;20032;-71
2022/03/28 09:23:29;;;;;;;21.70;19.38;;;;;;;;;;5069319;28;20446;-70
2022/03/28 09:25:55;;;;;;;22.48;18.35;;;;;;;;;;5061952;28;20036;-70
2022/03/28 09:28:48;;;;;;;28.73;19.30;;;;;;;;;;5067071;28;20098;-71
2022/03/28 09:31:30;;;;;;;26.40;19.77;;;;;;;;;;5067979;28;20040;-71
2022/03/28 09:34:06;;;;;;;25.42;18.98;;;;;;;;;;5058711;28;20036;-71
2022/03/28 09:36:41;;;;;;;24.08;18.90;;;;;;;;;;5070941;28;20044;-70
2022/03/28 09:39:16;;;;;;;21.60;18.77;;;;;;;;;;5052840;28;20040;-71
2022/03/28 09:41:44;;;;;;;29.15;20.65;;;;;;;;;;5068012;28;20033;-71
2022/03/28 09:44:10;;;;;;;22.58;20.05;;;;;;;;;;5068833;28;20395;-71
2022/03/28 09:46:37;;;;;;;26.98;20.40;;;;;;;;;;5070502;28;20041;-70
2022/03/28 09:49:04;;;;;;;26.52;21.00;;;;;;;;;;5066159;28;20032;-70
2022/03/28 09:51:32;;;;;;;22.50;19.98;;;;;;;;;;5069874;28;20028;-69
2022/03/28 09:53:58;;;;;;;27.00;19.25;;;;;;;;;;5070593;28;20051;-69
2022/03/28 09:56:24;;;;;;;25.67;19.98;;;;;;;;;;5068811;28;20252;-69
2022/03/28 09:59:04;;;;;;;31.00;20.73;;;;;;;;;;5067828;28;20036;-71
2022/03/28 10:01:38;;;;;;;26.25;19.73;;;;;;;;;;5065276;28;20495;-70
2022/03/28 10:04:07;;;;;;;25.58;20.30;;;;;;;;;;5070278;28;20041;-70
2022/03/28 10:06:35;;;;;;;31.67;21.88;;;;;;;;;;5070411;28;20033;-70
2022/03/28 10:09:01;;;;;;;29.60;20.83;;;;;;;;;;5068606;28;20028;-70
2022/03/28 10:11:27;;;;;;;29.40;20.63;;;;;;;;;;5063735;28;20032;-70
2022/03/28 10:13:54;;;;;;;23.42;20.35;;;;;;;;;;5070454;28;20028;-70
2022/03/28 10:16:20;;;;;;;26.23;20.45;;;;;;;;;;5066947;28;20387;-70
2022/03/28 10:18:47;;;;;;;25.45;21.67;;;;;;;;;;5067412;28;20123;-70
2022/03/28 10:21:17;;;;;;;26.25;21.13;;;;;;;;;;5070057;28;20035;-70
2022/03/28 10:24:04;;;;;;;26.67;20.73;;;;;;;;;;5070186;28;20036;-70
2022/03/28 10:26:39;;;;;;;32.38;20.15;;;;;;;;;;5058952;28;20037;-70
2022/03/28 10:29:11;;;;;;;26.95;19.70;;;;;;;;;;5063191;28;20032;-70
2022/03/28 10:31:51;;;;;;;26.35;20.70;;;;;;;;;;5070156;28;20498;-69
2022/03/28 10:34:51;;;;;;;27.10;20.38;;;;;;;;;;5068211;28;22147;-70
2022/03/28 10:37:35;;;;;;;28.73;20.33;;;;;;;;;;5067236;28;20036;-70
2022/03/28 10:40:17;;;;;;;29.13;20.08;;;;;;;;;;5070088;28;20071;-70
2022/03/28 10:43:04;;;;;;;29.85;20.45;;;;;;;;;;5070047;28;20040;-70
2022/03/28 10:45:43;;;;;;;30.65;20.27;;;;;;;;;;5068109;28;20036;-70
2022/03/28 10:48:09;;;;;;;26.55;20.35;;;;;;;;;;5069774;28;20625;-70
2022/03/28 10:50:40;;;;;;;27.38;20.55;;;;;;;;;;5069772;28;20040;-70
2022/03/28 10:53:13;;;;;;;26.65;20.45;;;;;;;;;;5065060;28;20335;-70
2022/03/28 10:55:53;;;;;;;26.30;20.92;;;;;;;;;;5058125;28;20033;-70
2022/03/28 10:58:23;;;;;;;28.67;20.98;;;;;;;;;;5069871;28;20125;-70
2022/03/28 11:01:07;;;;;;;27.70;21.77;;;;;;;;;;5069968;28;20344;-70
2022/03/28 11:04:03;;;;;;;31.30;21.45;;;;;;;;;;5065484;28;20400;-70
2022/03/28 11:07:00;;;;;;;28.27;20.73;;;;;;;;;;5069893;28;20040;-70
2022/03/28 11:09:41;;;;;;;25.50;21.27;;;;;;;;;;5069203;28;20036;-70
2022/03/28 11:12:10;;;;;;;24.92;21.45;;;;;;;;;;5041560;28;20406;-70
2022/03/28 11:14:51;;;;;;;28.33;20.63;;;;;;;;;;5052193;28;20260;-69
2022/03/28 11:17:24;;;;;;;24.13;21.25;;;;;;;;;;5069328;28;20044;-70
2022/03/28 11:20:12;;;;;;;27.48;21.02;;;;;;;;;;5066595;28;20033;-70
2022/03/28 11:23:11;;;;;;;24.05;21.00;;;;;;;;;;5067649;28;20145;-70
2022/03/28 11:25:36;;;;;;;;;;;;;;;;;;5041252;28;20451;-70
2022/03/28 11:28:06;;;;;;;27.60;20.45;;;;;;;;;;5063629;28;19916;-70
2022/03/28 11:30:35;;;;;;;24.05;20.85;;;;;;;;;;5055575;28;20679;-70
2022/03/28 11:33:08;;;;;;;26.92;20.70;;;;;;;;;;5068045;28;20037;-69
2022/03/28 11:35:34;;;;;;;24.65;21.13;;;;;;;;;;5069087;28;20040;-72
2022/03/28 11:38:01;;;;;;;27.13;20.50;;;;;;;;;;5028711;28;20036;-70
2022/03/28 11:40:41;;;;;;;24.60;20.83;;;;;;;;;;5060632;28;20537;-70
2022/03/28 11:43:07;;;;;;;;;;;;;;;;;;5060895;28;20498;-70
2022/03/28 11:45:33;;;;;;;27.05;20.83;;;;;;;;;;5061976;28;19964;-70
2022/03/28 11:48:01;;;;;;;24.38;19.55;;;;;;;;;;5067665;28;20075;-70
2022/03/28 11:50:31;;;;;;;25.00;22.35;;;;;;;;;;5067639;28;20037;-70
2022/03/28 11:52:57;;;;;;;22.98;20.48;;;;;;;;;;5062385;28;20033;-70
2022/03/28 11:55:25;;;;;;;23.20;19.27;;;;;;;;;;5064004;28;20043;-70
2022/03/28 12:00:38;;;;;;;24.33;20.55;;;;;;;;;;5062086;28;20033;-70
2022/03/28 12:03:04;;;;;;;22.52;20.23;;;;;;;;;;5040676;28;20048;-70
2022/03/28 12:05:32;;;;;;;22.10;19.73;;;;;;;;;;5039254;28;20526;-70
2022/03/28 12:08:00;;;;;;;24.27;21.27;;;;;;;;;;5065204;28;20106;-69
2022/03/28 12:10:32;;;;;;;23.60;20.15;;;;;;;;;;5067070;28;20055;-69
2022/03/28 12:12:59;;;;;;;22.08;19.23;;;;;;;;;;5064343;28;20043;-70
2022/03/28 12:15:31;;;;;;;24.83;19.55;;;;;;;;;;5056822;28;20041;-70
2022/03/28 12:18:01;;;;;;;23.95;19.23;;;;;;;;;;5067007;28;20119;-70
2022/03/28 12:20:32;;;;;;;20.73;18.48;;;;;;;;;;5067184;28;20450;-70
2022/03/28 12:22:58;;;;;;;21.38;19.30;;;;;;;;;;5066268;28;20457;-70
2022/03/28 12:25:35;;;;;;;25.63;20.85;;;;;;;;;;5058834;28;20180;-70
2022/03/28 12:28:29;;;;;;;22.35;20.08;;;;;;;;;;5060447;28;20044;-70
2022/03/28 12:30:59;;;;;;;22.65;19.52;;;;;;;;;;5047570;28;20033;-70
2022/03/28 12:33:30;;;;;;;25.05;19.77;;;;;;;;;;5059300;28;20599;-70
2022/03/28 12:36:05;;;;;;;22.48;19.33;;;;;;;;;;5067241;28;20037;-70
2022/03/28 12:38:32;;;;;;;29.40;21.25;;;;;;;;;;5066624;28;20060;-70
2022/03/28 12:41:04;;;;;;;24.65;20.48;;;;;;;;;;5058589;28;20040;-70
2022/03/28 12:43:32;;;;;;;25.55;20.27;;;;;;;;;;5053106;28;20036;-70
2022/03/28 12:46:02;;;;;;;24.58;20.52;;;;;;;;;;5064008;28;20127;-70
2022/03/28 12:48:51;;;;;;;23.40;20.90;;;;;;;;;;5064875;28;20091;-70
2022/03/28 12:51:26;;;;;;;28.52;21.98;;;;;;;;;;5057425;28;20054;-70
2022/03/28 12:54:04;;;;;;;26.42;21.33;;;;;;;;;;5057850;28;20097;-70
2022/03/28 12:56:40;;;;;;;29.58;21.90;;;;;;;;;;5056349;28;20036;-70
2022/03/28 12:59:06;;;;;;;32.72;20.98;;;;;;;;;;5064558;28;20025;-70
2022/03/28 13:01:33;;;;;;;26.60;22.45;;;;;;;;;;5059505;28;20546;-70
2022/03/28 13:04:09;;;;;;;31.38;22.55;;;;;;;;;;5065065;28;20220;-70
2022/03/28 13:06:39;;;;;;;35.28;24.67;;;;;;;;;;5067396;28;20098;-70
2022/03/28 13:09:05;;;;;;;27.15;22.38;;;;;;;;;;5069472;28;20491;-69
2022/03/28 13:11:32;;;;;;;31.90;25.00;;;;;;;;;;5069553;28;20316;-70
2022/03/28 13:13:58;;;;;;;30.23;23.63;;;;;;;;;;5069603;28;20044;-69
2022/03/28 13:16:25;;;;;;;32.85;22.63;;;;;;;;;;5064170;28;20037;-70
2022/03/28 13:18:55;;;;;;;26.83;22.10;;;;;;;;;;5069147;28;20676;-70
2022/03/28 13:21:21;;;;;;;27.45;21.50;;;;;;;;;;5069797;28;20392;-70
2022/03/28 13:23:47;;;;;;;26.63;22.48;;;;;;;;;;5067070;28;20043;-70
2022/03/28 13:26:17;;;;;;;32.58;23.70;;;;;;;;;;5060324;28;20040;-70
2022/03/28 13:28:43;;;;;;;28.23;22.20;;;;;;;;;;5068761;28;20068;-71
2022/03/28 13:31:10;;;;;;;27.35;22.42;;;;;;;;;;5069443;28;20040;-71
2022/03/28 13:33:36;;;;;;;30.63;22.33;;;;;;;;;;5064460;28;20037;-71
2022/03/28 13:36:02;;;;;;;25.08;20.73;;;;;;;;;;5061527;28;20140;-70
2022/03/28 13:38:29;;;;;;;31.23;22.27;;;;;;;;;;5062139;28;20344;-70
2022/03/28 13:40:56;;;;;;;27.45;22.15;;;;;;;;;;5064816;28;20090;-71
2022/03/28 13:43:22;;;;;;;24.33;20.63;;;;;;;;;;5056946;28;20111;-71
2022/03/28 13:45:48;;;;;;;25.98;20.83;;;;;;;;;;5066571;28;20124;-71
2022/03/28 13:48:18;;;;;;;28.27;22.10;;;;;;;;;;5050671;28;20037;-71
2022/03/28 13:50:46;;;;;;;29.40;22.55;;;;;;;;;;5061511;28;20070;-71
2022/03/28 13:53:12;;;;;;;24.17;21.37;;;;;;;;;;5065785;28;20029;-70
2022/03/28 13:55:38;;;;;;;31.63;23.20;;;;;;;;;;5064132;28;20045;-70
2022/03/28 13:58:04;;;;;;;28.88;22.83;;;;;;;;;;5062866;28;20392;-71
2022/03/28 14:00:32;;;;;;;30.63;21.58;;;;;;;;;;5058612;28;20138;-70
2022/03/28 14:02:59;;;;;;;24.50;21.38;;;;;;;;;;5064343;28;20045;-70
2022/03/28 14:05:25;;;;;;;30.63;20.70;;;;;;;;;;5067040;28;20426;-70
2022/03/28 14:07:51;;;;;;;26.65;21.98;;;;;;;;;;5064683;28;20038;-70
2022/03/28 14:10:16;;;;;;;24.17;19.58;;;;;;;;;;5060948;28;20040;-70
2022/03/28 14:12:42;;;;;;;23.63;19.75;;;;;;;;;;5060621;28;20036;-71
2022/03/28 14:15:08;;;;;;;21.17;18.92;;;;;;;;;;5069426;28;20055;-71
2022/03/28 14:17:37;;;;;;;27.35;20.83;;;;;;;;;;5064291;28;20029;-70
2022/03/28 14:20:07;;;;;;;26.80;21.02;;;;;;;;;;5063074;28;20058;-70
2022/03/28 14:22:33;;;;;;;25.67;19.48;;;;;;;;;;5069216;28;20051;-70
2022/03/28 14:25:00;;;;;;;27.33;19.90;;;;;;;;;;5063854;28;20067;-70
2022/03/28 14:27:26;;;;;;;28.15;21.15;;;;;;;;;;5062469;28;20048;-70
2022/03/28 14:29:56;;;;;;;22.63;19.13;;;;;;;;;;5069372;28;20041;-70